Time;durP1;ratioP1;P1;durP2;ratioP2;P2;SDS_P1;SDS_P2;PMS_P1;PMS_P2;Temp;Humidity;BMP_temperature;BMP_pressure;BME280_temperature;BME280_humidity;BME280_pressure;Samples;Min_cycle;Max_cycle;Signal;HPM_P1;HPM_P2
2023/05/01 00:01:44;;;;;;;18.42;10.40;;;;;;;;;;12698858;22;20024;-61
2023/05/01 00:06:44;;;;;;;6.95;5.15;;;;;;;;;;12698916;22;20012;-61
2023/05/01 00:11:42;;;;;;;9.95;5.57;;;;;;;;;;12698802;22;20358;-61
2023/05/01 00:16:40;;;;;;;8.30;5.03;;;;;;;;;;12697459;22;20020;-61
2023/05/01 00:21:38;;;;;;;8.05;5.57;;;;;;;;;;12698854;22;20027;-61
2023/05/01 00:26:38;;;;;;;7.05;4.80;;;;;;;;;;12697380;22;20024;-61
2023/05/01 00:31:36;;;;;;;6.00;5.03;;;;;;;;;;12717757;22;20884;-61
2023/05/01 00:36:34;;;;;;;10.63;4.55;;;;;;;;;;12698182;22;20482;-61
2023/05/01 00:41:33;;;;;;;4.68;4.10;;;;;;;;;;12697571;22;20027;-61
2023/05/01 00:46:33;;;;;;;4.50;4.10;;;;;;;;;;12670943;22;20016;-61
2023/05/01 00:51:32;;;;;;;5.22;3.95;;;;;;;;;;12671045;22;20020;-61
2023/05/01 00:56:30;;;;;;;5.78;4.55;;;;;;;;;;12698450;22;20346;-60
2023/05/01 01:01:29;;;;;;;5.60;4.60;;;;;;;;;;12670574;22;20031;-60
2023/05/01 01:06:38;;;;;;;7.38;4.72;;;;;;;;;;12698505;22;20454;-61
2023/05/01 01:11:38;;;;;;;4.93;3.97;;;;;;;;;;12717144;22;20019;-61
2023/05/01 01:16:39;;;;;;;7.70;4.93;;;;;;;;;;12670935;22;20024;-61
2023/05/01 01:21:41;;;;;;;5.72;4.53;;;;;;;;;;12716800;22;20023;-61
2023/05/01 01:26:52;;;;;;;7.45;4.43;;;;;;;;;;12669726;22;20027;-61
2023/05/01 01:31:57;;;;;;;6.07;4.50;;;;;;;;;;12670971;22;20019;-61
2023/05/01 01:37:01;;;;;;;8.35;5.15;;;;;;;;;;12670586;22;20028;-61
2023/05/01 01:42:00;;;;;;;4.50;4.10;;;;;;;;;;12669929;22;20024;-61
2023/05/01 01:46:59;;;;;;;4.88;3.60;;;;;;;;;;12670293;22;20145;-61
2023/05/01 01:51:59;;;;;;;6.15;4.00;;;;;;;;;;12670781;22;20020;-62
2023/05/01 01:57:00;;;;;;;6.10;4.32;;;;;;;;;;12670207;22;20028;-62
2023/05/01 02:01:59;;;;;;;7.45;6.25;;;;;;;;;;12670532;22;20377;-61
2023/05/01 02:06:58;;;;;;;10.57;5.50;;;;;;;;;;12670297;22;20450;-61
2023/05/01 02:11:58;;;;;;;9.77;4.97;;;;;;;;;;12698308;22;20023;-60
2023/05/01 02:16:57;;;;;;;5.55;4.78;;;;;;;;;;12673340;22;20023;-62
2023/05/01 02:21:57;;;;;;;9.23;4.95;;;;;;;;;;12701435;22;20019;-61
2023/05/01 02:27:00;;;;;;;4.93;3.92;;;;;;;;;;12701309;22;20016;-61
2023/05/01 02:31:59;;;;;;;4.78;4.15;;;;;;;;;;12718464;22;20016;-61
2023/05/01 02:36:57;;;;;;;4.63;4.22;;;;;;;;;;12673473;22;20016;-61
2023/05/01 02:41:58;;;;;;;8.85;4.97;;;;;;;;;;12672943;22;20043;-61
2023/05/01 02:46:58;;;;;;;5.55;4.63;;;;;;;;;;12673398;22;20027;-61
2023/05/01 02:51:58;;;;;;;7.50;5.53;;;;;;;;;;12673469;22;20074;-62
2023/05/01 02:56:58;;;;;;;9.23;4.72;;;;;;;;;;12673969;22;20366;-59
2023/05/01 03:01:58;;;;;;;8.10;4.45;;;;;;;;;;12700322;22;20023;-61
2023/05/01 03:06:56;;;;;;;7.75;4.82;;;;;;;;;;12673112;22;20362;-61
2023/05/01 03:11:55;;;;;;;4.35;3.95;;;;;;;;;;12673686;22;20450;-61
2023/05/01 03:16:53;;;;;;;5.13;4.18;;;;;;;;;;12698920;22;20027;-61
2023/05/01 03:21:53;;;;;;;9.30;5.18;;;;;;;;;;12699549;22;20008;-61
2023/05/01 03:26:51;;;;;;;5.65;4.75;;;;;;;;;;12699503;22;20020;-61
2023/05/01 03:31:50;;;;;;;4.63;4.22;;;;;;;;;;12700354;22;20020;-61
2023/05/01 03:36:48;;;;;;;6.88;4.75;;;;;;;;;;12699866;22;20376;-61
2023/05/01 03:41:48;;;;;;;4.82;4.43;;;;;;;;;;12672897;22;20020;-61
2023/05/01 03:46:58;;;;;;;4.03;3.63;;;;;;;;;;12672000;22;20023;-61
2023/05/01 03:51:58;;;;;;;4.45;3.42;;;;;;;;;;12671151;22;20024;-61
2023/05/01 03:56:59;;;;;;;7.60;5.20;;;;;;;;;;12671434;22;20020;-62
2023/05/01 04:01:57;;;;;;;6.50;5.28;;;;;;;;;;12672259;22;20031;-61
2023/05/01 04:06:58;;;;;;;5.75;5.00;;;;;;;;;;12671114;22;20012;-61
2023/05/01 04:11:57;;;;;;;13.07;5.30;;;;;;;;;;12700346;22;20012;-61
2023/05/01 04:16:56;;;;;;;4.22;3.83;;;;;;;;;;12672124;22;20016;-60
2023/05/01 04:21:54;;;;;;;3.78;3.38;;;;;;;;;;12672115;22;20020;-61
2023/05/01 04:26:52;;;;;;;6.00;4.95;;;;;;;;;;12672084;22;20020;-60
2023/05/01 04:31:52;;;;;;;13.95;9.35;;;;;;;;;;12671858;22;20020;-60
2023/05/01 04:36:51;;;;;;;14.43;7.55;;;;;;;;;;12668762;22;20020;-61
2023/05/01 04:41:49;;;;;;;6.95;5.70;;;;;;;;;;12671635;22;20024;-62
2023/05/01 04:46:47;;;;;;;10.00;6.25;;;;;;;;;;12698376;22;20012;-61
2023/05/01 04:51:47;;;;;;;11.90;5.03;;;;;;;;;;12668897;22;20335;-62
2023/05/01 04:56:47;;;;;;;14.63;6.90;;;;;;;;;;12667918;22;20480;-61
2023/05/01 05:01:46;;;;;;;27.40;8.23;;;;;;;;;;12693393;22;20016;-60
2023/05/01 05:06:45;;;;;;;10.55;5.65;;;;;;;;;;12663363;22;20161;-61
2023/05/01 05:11:49;;;;;;;31.25;8.02;;;;;;;;;;12664248;22;20027;-61
2023/05/01 05:16:51;;;;;;;12.98;4.32;;;;;;;;;;12665420;22;20634;-60
2023/05/01 05:21:49;;;;;;;50.10;10.15;;;;;;;;;;12669797;22;20024;-61
2023/05/01 05:26:49;;;;;;;9.02;5.13;;;;;;;;;;12691926;22;20031;-61
2023/05/01 05:31:47;;;;;;;376.05;49.13;;;;;;;;;;12666043;22;20023;-61
2023/05/01 05:36:47;;;;;;;398.20;54.88;;;;;;;;;;12665956;22;20016;-61
2023/05/01 05:41:49;;;;;;;83.00;15.88;;;;;;;;;;12665417;22;20055;-61
2023/05/01 05:46:48;;;;;;;79.13;12.10;;;;;;;;;;12666794;22;20731;-61
2023/05/01 05:51:55;;;;;;;45.70;10.13;;;;;;;;;;12671957;22;20016;-60
2023/05/01 05:56:56;;;;;;;34.10;9.52;;;;;;;;;;12675089;22;20012;-61
2023/05/01 06:01:55;;;;;;;379.17;45.35;;;;;;;;;;12674116;22;20023;-61
2023/05/01 06:06:54;;;;;;;34.03;8.38;;;;;;;;;;12700374;22;20016;-61
2023/05/01 06:11:52;;;;;;;6.85;4.78;;;;;;;;;;12701656;22;20015;-61
2023/05/01 06:16:52;;;;;;;11.15;6.97;;;;;;;;;;12673941;22;20354;-61
2023/05/01 06:21:50;;;;;;;15.15;7.53;;;;;;;;;;12673711;22;20020;-61
2023/05/01 06:26:48;;;;;;;10.88;5.90;;;;;;;;;;12674345;22;20047;-61
2023/05/01 06:31:46;;;;;;;11.63;4.40;;;;;;;;;;12674376;22;20027;-61
2023/05/01 06:36:46;;;;;;;40.90;10.02;;;;;;;;;;12673736;22;20016;-61
2023/05/01 06:41:45;;;;;;;39.80;9.75;;;;;;;;;;12700386;22;20012;-61
2023/05/01 06:46:45;;;;;;;10.35;5.38;;;;;;;;;;12699915;22;20012;-60
2023/05/01 06:51:43;;;;;;;8.80;4.43;;;;;;;;;;12695695;22;20031;-61
2023/05/01 06:56:44;;;;;;;9.10;4.97;;;;;;;;;;12671463;22;20018;-60
2023/05/01 07:01:43;;;;;;;9.75;5.50;;;;;;;;;;12699009;22;20020;-60
2023/05/01 07:06:41;;;;;;;9.10;3.97;;;;;;;;;;12698167;22;20016;-61
2023/05/01 07:11:41;;;;;;;6.78;4.88;;;;;;;;;;12694877;22;20020;-60
2023/05/01 07:16:41;;;;;;;47.53;8.05;;;;;;;;;;12693119;22;20027;-60
2023/05/01 07:21:40;;;;;;;19.67;5.78;;;;;;;;;;12695741;22;20470;-60
2023/05/01 07:26:38;;;;;;;12.05;6.38;;;;;;;;;;12699799;22;20012;-61
2023/05/01 07:31:37;;;;;;;34.47;14.35;;;;;;;;;;12718335;22;20023;-60
2023/05/01 07:36:37;;;;;;;127.47;17.45;;;;;;;;;;12697627;22;20016;-60
2023/05/01 07:41:35;;;;;;;19.85;6.88;;;;;;;;;;12699229;22;20031;-59
2023/05/01 07:46:35;;;;;;;5.82;4.65;;;;;;;;;;12698499;22;20016;-60
2023/05/01 07:51:34;;;;;;;15.05;6.13;;;;;;;;;;12698305;23;20342;-60
2023/05/01 07:56:33;;;;;;;15.68;8.63;;;;;;;;;;12699604;22;20012;-59
2023/05/01 08:01:33;;;;;;;5.22;4.72;;;;;;;;;;12698504;22;20354;-60
2023/05/01 08:06:32;;;;;;;6.65;4.82;;;;;;;;;;12694262;22;20016;-60
2023/05/01 08:11:32;;;;;;;9.57;6.95;;;;;;;;;;12697320;22;20043;-60
2023/05/01 08:16:31;;;;;;;10.75;8.23;;;;;;;;;;12691079;22;20035;-59
2023/05/01 08:21:30;;;;;;;30.55;24.80;;;;;;;;;;12695026;22;20027;-60
2023/05/01 08:26:28;;;;;;;12.70;9.82;;;;;;;;;;12693987;22;20697;-61
2023/05/01 08:31:26;;;;;;;7.00;6.30;;;;;;;;;;12694292;22;20020;-60
2023/05/01 08:36:26;;;;;;;8.38;7.28;;;;;;;;;;12698284;22;20019;-60
2023/05/01 08:41:25;;;;;;;5.65;5.03;;;;;;;;;;12697353;22;20331;-60
2023/05/01 08:46:29;;;;;;;17.30;8.50;;;;;;;;;;12692388;22;20019;-60
2023/05/01 08:51:30;;;;;;;15.32;5.28;;;;;;;;;;12699616;22;20031;-60
2023/05/01 08:56:30;;;;;;;12.93;5.38;;;;;;;;;;12508969;23;20388;-60
2023/05/01 09:01:31;;;;;;;21.58;6.20;;;;;;;;;;12482797;23;20426;-59
2023/05/01 09:06:31;;;;;;;20.25;7.00;;;;;;;;;;12504105;23;20021;-61
2023/05/01 09:11:30;;;;;;;20.88;6.65;;;;;;;;;;12506803;23;20044;-60
2023/05/01 09:16:29;;;;;;;6.80;5.40;;;;;;;;;;12503156;23;20021;-70
2023/05/01 09:21:30;;;;;;;7.78;4.85;;;;;;;;;;12503361;23;20029;-75
2023/05/01 09:26:39;;;;;;;10.68;4.50;;;;;;;;;;12518426;23;20013;-75
2023/05/01 09:31:37;;;;;;;11.20;5.38;;;;;;;;;;12556435;22;20462;-74
2023/05/01 09:36:36;;;;;;;10.07;4.63;;;;;;;;;;12695735;22;20570;-73
2023/05/01 09:41:50;;;;;;;10.32;5.05;;;;;;;;;;12697595;22;20020;-79
2023/05/01 09:46:49;;;;;;;7.78;4.82;;;;;;;;;;12714662;22;20012;-76
2023/05/01 09:51:48;;;;;;;7.97;5.28;;;;;;;;;;12698300;22;20008;-79
2023/05/01 09:56:49;;;;;;;10.52;5.15;;;;;;;;;;12699116;22;20008;-80
2023/05/01 10:01:48;;;;;;;8.07;5.15;;;;;;;;;;12697704;22;20016;-81
2023/05/01 10:06:47;;;;;;;8.27;4.90;;;;;;;;;;12718929;22;20016;-82
2023/05/01 10:11:51;;;;;;;4.78;4.30;;;;;;;;;;12673135;22;20527;-77
2023/05/01 10:16:51;;;;;;;10.52;4.82;;;;;;;;;;12718968;22;20020;-75
2023/05/01 10:21:50;;;;;;;5.57;4.28;;;;;;;;;;12718996;22;20016;-75
2023/05/01 10:26:50;;;;;;;5.65;4.32;;;;;;;;;;12695820;22;20023;-75
2023/05/01 10:31:48;;;;;;;8.20;5.05;;;;;;;;;;12698271;22;20486;-74
2023/05/01 10:36:47;;;;;;;9.80;4.95;;;;;;;;;;12700485;22;20013;-74
2023/05/01 10:42:02;;;;;;;4.65;4.25;;;;;;;;;;12700474;22;20016;-75
2023/05/01 10:47:00;;;;;;;;;;;;;;;;;;12716306;22;20019;-75
2023/05/01 10:51:59;;;;;;;7.10;4.10;;;;;;;;;;12696891;22;19927;-75
2023/05/01 10:56:58;;;;;;;5.32;3.67;;;;;;;;;;12692947;22;20012;-75
2023/05/01 11:01:58;;;;;;;5.10;3.67;;;;;;;;;;12697780;22;20016;-76
2023/05/01 11:07:16;;;;;;;5.07;4.43;;;;;;;;;;12693987;22;20023;-75
2023/05/01 11:12:16;;;;;;;6.03;4.32;;;;;;;;;;12692564;22;20016;-74
2023/05/01 11:17:36;;;;;;;6.50;4.00;;;;;;;;;;12699643;22;20012;-71
2023/05/01 11:22:35;;;;;;;11.35;7.15;;;;;;;;;;12697263;22;20027;-71
2023/05/01 11:27:33;;;;;;;7.70;3.58;;;;;;;;;;12668862;22;20047;-71
2023/05/01 11:32:33;;;;;;;10.05;6.43;;;;;;;;;;12695122;22;20499;-70
2023/05/01 11:37:41;;;;;;;4.20;3.33;;;;;;;;;;12712305;22;20016;-70
2023/05/01 11:42:39;;;;;;;5.00;3.35;;;;;;;;;;12695084;22;20027;-71
2023/05/01 11:47:39;;;;;;;5.32;3.25;;;;;;;;;;12696030;22;20039;-71
2023/05/01 11:52:44;;;;;;;3.80;2.97;;;;;;;;;;12696763;22;20019;-70
2023/05/01 11:57:49;;;;;;;3.47;2.75;;;;;;;;;;12708782;22;20012;-69
2023/05/01 12:03:02;;;;;;;3.67;2.50;;;;;;;;;;12708569;22;20454;-69
2023/05/01 12:08:10;;;;;;;5.30;3.10;;;;;;;;;;12708278;22;20489;-77
2023/05/01 12:13:09;;;;;;;7.28;3.92;;;;;;;;;;12708288;22;20012;-77
2023/05/01 12:18:09;;;;;;;3.00;2.70;;;;;;;;;;12691886;22;20422;-75
2023/05/01 12:23:08;;;;;;;4.05;3.20;;;;;;;;;;12694055;22;20023;-76
2023/05/01 12:28:10;;;;;;;4.28;2.90;;;;;;;;;;12695425;22;20012;-77
2023/05/01 12:33:11;;;;;;;8.63;3.15;;;;;;;;;;12696439;22;20020;-76
2023/05/01 12:38:11;;;;;;;5.55;3.08;;;;;;;;;;12668249;22;20624;-76
2023/05/01 12:43:09;;;;;;;3.72;2.47;;;;;;;;;;12696309;22;20438;-76
2023/05/01 12:48:15;;;;;;;6.28;2.72;;;;;;;;;;12698951;22;20012;-77
2023/05/01 12:53:13;;;;;;;5.82;3.30;;;;;;;;;;12672788;22;20016;-77
2023/05/01 12:58:13;;;;;;;8.38;3.47;;;;;;;;;;12699542;22;20012;-76
2023/05/01 13:03:12;;;;;;;9.07;4.80;;;;;;;;;;12698170;22;20020;-76
2023/05/01 13:08:12;;;;;;;6.40;3.90;;;;;;;;;;12699570;22;20012;-77
2023/05/01 13:13:10;;;;;;;5.00;3.28;;;;;;;;;;12698062;22;20358;-79
2023/05/01 13:18:09;;;;;;;3.28;2.78;;;;;;;;;;12699643;22;20080;-78
2023/05/01 13:23:10;;;;;;;7.63;5.07;;;;;;;;;;12699323;22;20324;-76
2023/05/01 13:28:10;;;;;;;24.88;19.15;;;;;;;;;;12671445;22;20027;-70
2023/05/01 13:33:10;;;;;;;3.47;2.97;;;;;;;;;;12698331;22;20020;-70
2023/05/01 13:38:10;;;;;;;5.90;3.58;;;;;;;;;;12697925;22;20024;-69
2023/05/01 13:43:13;;;;;;;4.18;2.92;;;;;;;;;;12698791;22;20023;-70
2023/05/01 13:48:12;;;;;;;5.20;3.38;;;;;;;;;;12698092;22;20023;-70
2023/05/01 13:53:10;;;;;;;12.20;3.72;;;;;;;;;;12697699;22;20016;-69
2023/05/01 13:58:08;;;;;;;3.90;2.55;;;;;;;;;;12696534;22;20445;-74
2023/05/01 14:03:10;;;;;;;3.33;2.17;;;;;;;;;;12695276;22;20031;-69
2023/05/01 14:08:09;;;;;;;7.72;3.05;;;;;;;;;;12710797;22;20016;-70
2023/05/01 14:13:07;;;;;;;7.38;3.00;;;;;;;;;;12700352;22;20023;-69
2023/05/01 14:18:06;;;;;;;4.38;2.97;;;;;;;;;;12702200;22;20019;-69
2023/05/01 14:23:06;;;;;;;3.60;2.58;;;;;;;;;;12702425;22;20023;-70
2023/05/01 14:28:06;;;;;;;6.03;3.13;;;;;;;;;;12700334;22;20043;-70
2023/05/01 14:33:06;;;;;;;5.43;2.88;;;;;;;;;;12701430;22;20023;-70
2023/05/01 14:38:10;;;;;;;5.07;3.17;;;;;;;;;;12701829;22;20438;-70
2023/05/01 14:43:09;;;;;;;3.38;2.58;;;;;;;;;;12714894;22;20016;-70
2023/05/01 14:48:10;;;;;;;7.63;2.75;;;;;;;;;;12700552;22;20024;-70
2023/05/01 14:53:12;;;;;;;9.00;2.80;;;;;;;;;;12701563;22;20016;-70
2023/05/01 14:58:10;;;;;;;9.05;3.72;;;;;;;;;;12701616;22;20078;-70
2023/05/01 15:03:08;;;;;;;6.50;2.53;;;;;;;;;;12701269;22;20031;-70
2023/05/01 15:08:07;;;;;;;4.43;3.13;;;;;;;;;;12701694;22;20012;-70
2023/05/01 15:13:07;;;;;;;5.32;3.50;;;;;;;;;;12700925;22;20012;-71
2023/05/01 15:18:06;;;;;;;13.48;3.88;;;;;;;;;;12701122;22;20031;-70
2023/05/01 15:23:04;;;;;;;5.88;2.88;;;;;;;;;;12700453;22;20020;-72
2023/05/01 15:28:02;;;;;;;7.68;5.53;;;;;;;;;;12698923;22;20043;-70
2023/05/01 15:33:02;;;;;;;4.75;2.85;;;;;;;;;;12701116;22;20435;-71
2023/05/01 15:38:02;;;;;;;9.27;6.90;;;;;;;;;;12700633;22;20019;-71
2023/05/01 15:43:00;;;;;;;11.00;4.28;;;;;;;;;;12699333;22;20031;-71
2023/05/01 15:47:58;;;;;;;3.33;2.33;;;;;;;;;;12700650;22;20025;-71
2023/05/01 15:53:00;;;;;;;4.38;2.83;;;;;;;;;;12700304;22;20009;-70
2023/05/01 15:58:01;;;;;;;3.50;2.65;;;;;;;;;;12713339;22;20020;-70
2023/05/01 16:03:00;;;;;;;6.20;4.43;;;;;;;;;;12713431;22;20012;-71
2023/05/01 16:08:00;;;;;;;10.65;3.13;;;;;;;;;;12700046;22;20020;-71
2023/05/01 16:12:59;;;;;;;8.35;3.90;;;;;;;;;;12700220;22;20352;-71
2023/05/01 16:17:57;;;;;;;5.57;3.47;;;;;;;;;;12699708;22;20012;-71
2023/05/01 16:22:55;;;;;;;3.30;3.00;;;;;;;;;;12699185;22;20031;-71
2023/05/01 16:27:55;;;;;;;8.15;5.28;;;;;;;;;;12699413;22;20015;-71
2023/05/01 16:32:54;;;;;;;10.00;4.18;;;;;;;;;;12699048;22;20449;-70
2023/05/01 16:37:52;;;;;;;9.20;5.18;;;;;;;;;;12698893;22;20028;-71
2023/05/01 16:42:51;;;;;;;7.43;4.10;;;;;;;;;;12699419;22;20023;-71
2023/05/01 16:47:51;;;;;;;13.30;6.47;;;;;;;;;;12671374;22;20020;-71
2023/05/01 16:52:50;;;;;;;8.70;3.90;;;;;;;;;;12696296;22;20024;-73
2023/05/01 16:57:48;;;;;;;12.02;4.63;;;;;;;;;;12696116;22;20016;-71
2023/05/01 17:02:48;;;;;;;5.05;3.53;;;;;;;;;;12696964;22;20019;-70
2023/05/01 17:07:48;;;;;;;12.55;5.53;;;;;;;;;;12697819;22;20012;-71
2023/05/01 17:12:46;;;;;;;6.78;4.75;;;;;;;;;;12692207;22;20358;-70
2023/05/01 17:17:44;;;;;;;9.02;5.20;;;;;;;;;;12692908;22;20020;-69
2023/05/01 17:22:43;;;;;;;3.35;3.03;;;;;;;;;;12690631;22;20012;-70
2023/05/01 17:27:43;;;;;;;3.15;2.80;;;;;;;;;;12692282;22;20378;-71
2023/05/01 17:32:41;;;;;;;10.52;6.70;;;;;;;;;;12697565;22;20027;-70
2023/05/01 17:37:40;;;;;;;15.27;4.50;;;;;;;;;;12692477;22;20031;-70
2023/05/01 17:42:38;;;;;;;6.53;4.07;;;;;;;;;;12697247;22;20012;-71
2023/05/01 17:47:40;;;;;;;5.43;3.20;;;;;;;;;;12699214;22;20027;-71
2023/05/01 17:52:38;;;;;;;5.72;3.30;;;;;;;;;;12695253;22;20031;-71
2023/05/01 17:57:40;;;;;;;7.25;3.88;;;;;;;;;;12695882;22;20016;-71
2023/05/01 18:02:43;;;;;;;5.45;3.67;;;;;;;;;;12700585;22;20016;-70
2023/05/01 18:07:41;;;;;;;10.25;3.58;;;;;;;;;;12700487;22;20012;-71
2023/05/01 18:12:40;;;;;;;4.25;3.85;;;;;;;;;;12701984;22;20346;-70
2023/05/01 18:17:38;;;;;;;9.00;3.70;;;;;;;;;;12698847;22;20027;-71
2023/05/01 18:22:37;;;;;;;9.38;4.03;;;;;;;;;;12699428;22;20024;-71
2023/05/01 18:27:37;;;;;;;5.43;3.42;;;;;;;;;;12700924;22;20028;-70
2023/05/01 18:32:35;;;;;;;3.33;2.90;;;;;;;;;;12700501;22;20019;-69
2023/05/01 18:37:46;;;;;;;4.25;2.70;;;;;;;;;;12695372;22;20127;-71
2023/05/01 18:42:45;;;;;;;6.80;3.13;;;;;;;;;;12696545;22;20019;-71
2023/05/01 18:47:43;;;;;;;4.97;2.78;;;;;;;;;;12694695;22;20016;-71
2023/05/01 18:52:41;;;;;;;3.70;3.05;;;;;;;;;;12691811;22;20016;-71
2023/05/01 18:57:42;;;;;;;5.93;3.42;;;;;;;;;;12693971;22;20348;-70
2023/05/01 19:02:41;;;;;;;13.43;3.70;;;;;;;;;;12694469;22;20027;-69
2023/05/01 19:07:39;;;;;;;3.65;2.70;;;;;;;;;;12696963;22;20016;-70
2023/05/01 19:12:38;;;;;;;6.40;3.78;;;;;;;;;;12698425;22;20042;-70
2023/05/01 19:17:37;;;;;;;7.65;3.63;;;;;;;;;;12701565;22;20362;-70
2023/05/01 19:22:36;;;;;;;7.22;3.90;;;;;;;;;;12699493;22;20035;-68
2023/05/01 19:27:34;;;;;;;4.00;3.35;;;;;;;;;;12695564;22;20020;-70
2023/05/01 19:32:33;;;;;;;5.07;3.17;;;;;;;;;;12669557;22;20358;-71
2023/05/01 19:37:32;;;;;;;6.63;3.25;;;;;;;;;;12697110;22;20020;-71
2023/05/01 19:42:30;;;;;;;3.80;3.20;;;;;;;;;;12668354;22;20020;-70
2023/05/01 19:47:28;;;;;;;5.82;3.35;;;;;;;;;;12700889;22;20012;-69
2023/05/01 19:52:27;;;;;;;9.70;4.28;;;;;;;;;;12699528;22;20019;-70
2023/05/01 19:57:26;;;;;;;11.77;3.70;;;;;;;;;;12671988;22;20016;-70
2023/05/01 20:02:24;;;;;;;4.65;3.58;;;;;;;;;;12700325;22;20012;-70
2023/05/01 20:07:23;;;;;;;4.15;3.28;;;;;;;;;;12699908;22;20020;-71
2023/05/01 20:12:22;;;;;;;4.30;3.35;;;;;;;;;;12699205;22;20012;-70
2023/05/01 20:17:21;;;;;;;3.47;3.10;;;;;;;;;;12700309;22;20013;-70
2023/05/01 20:22:20;;;;;;;4.40;3.80;;;;;;;;;;12699911;22;20031;-69
2023/05/01 20:27:18;;;;;;;8.20;3.83;;;;;;;;;;12698523;22;20366;-72
2023/05/01 20:32:16;;;;;;;5.28;3.25;;;;;;;;;;12700232;22;20027;-70
2023/05/01 20:37:16;;;;;;;5.25;3.97;;;;;;;;;;12699993;22;20031;-70
2023/05/01 20:42:14;;;;;;;7.28;3.45;;;;;;;;;;12699583;22;20012;-70
2023/05/01 20:47:13;;;;;;;8.48;3.45;;;;;;;;;;12700578;22;20346;-70
2023/05/01 20:52:11;;;;;;;14.55;4.82;;;;;;;;;;12671338;22;20020;-71
2023/05/01 20:57:10;;;;;;;9.82;3.55;;;;;;;;;;12699565;22;20031;-71
2023/05/01 21:02:09;;;;;;;4.55;2.85;;;;;;;;;;12699331;22;20023;-71
2023/05/01 21:07:07;;;;;;;6.10;2.90;;;;;;;;;;12671775;22;20020;-71
2023/05/01 21:12:06;;;;;;;14.73;3.80;;;;;;;;;;12699768;22;20012;-71
2023/05/01 21:17:06;;;;;;;6.65;3.92;;;;;;;;;;12670511;22;20476;-72
2023/05/01 21:22:04;;;;;;;4.40;2.75;;;;;;;;;;12697729;22;20039;-71
2023/05/01 21:27:06;;;;;;;6.13;2.70;;;;;;;;;;12697818;22;20024;-69
2023/05/01 21:32:04;;;;;;;6.53;3.03;;;;;;;;;;12697392;22;20020;-72
2023/05/01 21:37:04;;;;;;;8.50;3.00;;;;;;;;;;12697135;22;20023;-71
2023/05/01 21:42:03;;;;;;;4.40;2.65;;;;;;;;;;12698900;22;20438;-71
2023/05/01 21:47:05;;;;;;;6.93;2.80;;;;;;;;;;12703717;22;20039;-72
2023/05/01 21:52:07;;;;;;;6.35;3.20;;;;;;;;;;12697741;22;20016;-72
2023/05/01 21:57:06;;;;;;;5.10;3.22;;;;;;;;;;12698705;22;20020;-71
2023/05/01 22:02:07;;;;;;;7.35;3.70;;;;;;;;;;12694366;22;20398;-70
2023/05/01 22:07:10;;;;;;;4.18;3.42;;;;;;;;;;12692124;22;20047;-71
2023/05/01 22:12:11;;;;;;;4.35;2.85;;;;;;;;;;12666351;22;20024;-71
2023/05/01 22:17:09;;;;;;;4.82;2.95;;;;;;;;;;12703168;22;20027;-71
2023/05/01 22:22:07;;;;;;;5.70;3.20;;;;;;;;;;12698067;22;20019;-71
2023/05/01 22:27:07;;;;;;;4.50;2.50;;;;;;;;;;12697997;22;20016;-71
2023/05/01 22:32:06;;;;;;;5.68;2.42;;;;;;;;;;12700375;22;20027;-69
2023/05/01 22:37:05;;;;;;;8.77;2.88;;;;;;;;;;12700243;22;20066;-71
2023/05/01 22:42:03;;;;;;;7.22;2.97;;;;;;;;;;12699311;22;20765;-71
2023/05/01 22:47:03;;;;;;;3.97;2.08;;;;;;;;;;12701316;22;20013;-70
2023/05/01 22:52:02;;;;;;;6.35;2.75;;;;;;;;;;12701605;22;20023;-70
2023/05/01 22:57:01;;;;;;;3.83;2.40;;;;;;;;;;12700611;22;20012;-70
2023/05/01 23:02:03;;;;;;;4.85;2.67;;;;;;;;;;12700960;22;20366;-70
2023/05/01 23:07:02;;;;;;;3.90;2.53;;;;;;;;;;12706275;22;20016;-71
2023/05/01 23:12:00;;;;;;;4.43;2.92;;;;;;;;;;12700106;22;20016;-70
2023/05/01 23:17:00;;;;;;;6.90;2.47;;;;;;;;;;12701149;22;20020;-70
2023/05/01 23:22:09;;;;;;;3.38;2.15;;;;;;;;;;12700114;22;20399;-70
2023/05/01 23:27:08;;;;;;;6.60;2.53;;;;;;;;;;12704336;22;20012;-71
2023/05/01 23:32:08;;;;;;;4.47;3.00;;;;;;;;;;12705028;22;20442;-70
2023/05/01 23:37:06;;;;;;;4.32;2.50;;;;;;;;;;12700215;22;20009;-71
2023/05/01 23:42:06;;;;;;;4.90;2.13;;;;;;;;;;12700097;22;20051;-71
2023/05/01 23:47:04;;;;;;;6.68;2.72;;;;;;;;;;12700031;22;20016;-71
2023/05/01 23:52:03;;;;;;;4.60;2.58;;;;;;;;;;12700294;22;20382;-71
2023/05/01 23:57:01;;;;;;;3.75;2.90;;;;;;;;;;12699897;22;20019;-70
